Decoded Metar for K2J9 ( in ) (IATA:) | Meteo·Mobile Aviation Weather
aviador You're here:

K2J9 Decoded Metar

in
Report Time2019-02-23 00:15:00
UTC Time2019-02-23 00:17:32
Flight Rules vfr VFR
Wind170° at 04 kt
W.Rank170° ranks 6
Current wind is below 170° avg. (6.7)
Visibility9999 m
Phenomena:N/A
Clouds:Few 019 Hf
Scattered 085 Hf
Overcast 110 Hf
Expected CloudBase > 1,200 ft AGL from Temp-Dew spread
Ceiling11,000 ft
Temp23°C
Dew Point20°C (83% RH)
QNH1021 hPa
Raw Report
K2J9 230015Z AUTO 17004KT 10SM FEW019 SCT085 OVC110 23/20 A3015
RMK AO2=

Extra information for K2J9:More info

Social comments